sensor_id;sensor_type;location;lat;lon;timestamp;P1;durP1;ratioP1;P2;durP2;ratioP2
16640;SDS011;8434;47.990;7.880;2022-10-29T00:00:21;10.50;;;4.30;;
16640;SDS011;8434;47.990;7.880;2022-10-29T00:03:06;9.57;;;3.73;;
16640;SDS011;8434;47.990;7.880;2022-10-29T00:05:58;10.60;;;3.90;;
16640;SDS011;8434;47.990;7.880;2022-10-29T00:08:43;13.93;;;4.07;;
16640;SDS011;8434;47.990;7.880;2022-10-29T00:11:28;8.30;;;4.20;;
16640;SDS011;8434;47.990;7.880;2022-10-29T00:14:15;9.43;;;3.60;;
16640;SDS011;8434;47.990;7.880;2022-10-29T00:17:00;9.20;;;3.30;;
16640;SDS011;8434;47.990;7.880;2022-10-29T00:19:45;11.63;;;3.43;;
16640;SDS011;8434;47.990;7.880;2022-10-29T00:22:31;9.60;;;3.50;;
16640;SDS011;8434;47.990;7.880;2022-10-29T00:25:16;11.20;;;4.07;;
16640;SDS011;8434;47.990;7.880;2022-10-29T00:28:02;6.73;;;3.50;;
16640;SDS011;8434;47.990;7.880;2022-10-29T00:30:49;11.20;;;4.10;;
16640;SDS011;8434;47.990;7.880;2022-10-29T00:33:34;14.20;;;4.77;;
16640;SDS011;8434;47.990;7.880;2022-10-29T00:36:20;9.03;;;4.47;;
16640;SDS011;8434;47.990;7.880;2022-10-29T00:39:05;7.10;;;3.40;;
16640;SDS011;8434;47.990;7.880;2022-10-29T00:41:50;9.77;;;3.70;;
16640;SDS011;8434;47.990;7.880;2022-10-29T00:44:36;7.37;;;3.10;;
16640;SDS011;8434;47.990;7.880;2022-10-29T00:47:24;12.20;;;4.07;;
16640;SDS011;8434;47.990;7.880;2022-10-29T00:50:11;8.53;;;3.10;;
16640;SDS011;8434;47.990;7.880;2022-10-29T00:52:57;14.53;;;4.30;;
16640;SDS011;8434;47.990;7.880;2022-10-29T00:55:43;8.53;;;3.63;;
16640;SDS011;8434;47.990;7.880;2022-10-29T00:58:28;10.10;;;3.40;;
16640;SDS011;8434;47.990;7.880;2022-10-29T01:01:13;7.73;;;3.40;;
16640;SDS011;8434;47.990;7.880;2022-10-29T01:03:59;6.93;;;3.90;;
16640;SDS011;8434;47.990;7.880;2022-10-29T01:06:45;6.73;;;3.17;;
16640;SDS011;8434;47.990;7.880;2022-10-29T01:09:30;11.80;;;3.57;;
16640;SDS011;8434;47.990;7.880;2022-10-29T01:12:22;9.70;;;3.77;;
16640;SDS011;8434;47.990;7.880;2022-10-29T01:15:12;11.73;;;4.13;;
16640;SDS011;8434;47.990;7.880;2022-10-29T01:18:05;9.53;;;3.20;;
16640;SDS011;8434;47.990;7.880;2022-10-29T01:30:55;7.17;;;3.10;;
16640;SDS011;8434;47.990;7.880;2022-10-29T01:33:44;7.07;;;2.97;;
16640;SDS011;8434;47.990;7.880;2022-10-29T01:36:36;10.23;;;3.20;;
16640;SDS011;8434;47.990;7.880;2022-10-29T01:39:26;7.80;;;2.87;;
16640;SDS011;8434;47.990;7.880;2022-10-29T01:42:16;8.83;;;3.03;;
16640;SDS011;8434;47.990;7.880;2022-10-29T01:45:07;9.00;;;3.23;;
16640;SDS011;8434;47.990;7.880;2022-10-29T01:47:55;12.20;;;4.17;;
16640;SDS011;8434;47.990;7.880;2022-10-29T01:50:42;10.07;;;3.00;;
16640;SDS011;8434;47.990;7.880;2022-10-29T01:53:28;8.33;;;3.33;;
16640;SDS011;8434;47.990;7.880;2022-10-29T01:56:14;5.67;;;2.83;;
16640;SDS011;8434;47.990;7.880;2022-10-29T01:58:59;7.87;;;3.03;;
16640;SDS011;8434;47.990;7.880;2022-10-29T02:01:48;9.13;;;3.67;;
16640;SDS011;8434;47.990;7.880;2022-10-29T02:04:45;7.37;;;2.97;;
16640;SDS011;8434;47.990;7.880;2022-10-29T02:07:34;6.80;;;3.17;;
16640;SDS011;8434;47.990;7.880;2022-10-29T02:10:25;6.50;;;3.07;;
16640;SDS011;8434;47.990;7.880;2022-10-29T02:13:11;10.97;;;3.20;;
16640;SDS011;8434;47.990;7.880;2022-10-29T02:15:58;10.00;;;4.03;;
16640;SDS011;8434;47.990;7.880;2022-10-29T02:18:44;5.70;;;3.17;;
16640;SDS011;8434;47.990;7.880;2022-10-29T02:21:31;11.90;;;3.40;;
16640;SDS011;8434;47.990;7.880;2022-10-29T02:24:16;9.33;;;3.27;;
16640;SDS011;8434;47.990;7.880;2022-10-29T02:27:01;11.03;;;3.57;;
16640;SDS011;8434;47.990;7.880;2022-10-29T02:29:46;9.63;;;3.30;;
16640;SDS011;8434;47.990;7.880;2022-10-29T02:32:31;6.90;;;3.30;;
16640;SDS011;8434;47.990;7.880;2022-10-29T02:35:16;9.30;;;3.30;;
16640;SDS011;8434;47.990;7.880;2022-10-29T02:38:02;8.83;;;3.50;;
16640;SDS011;8434;47.990;7.880;2022-10-29T02:40:47;8.83;;;3.83;;
16640;SDS011;8434;47.990;7.880;2022-10-29T02:43:32;7.70;;;3.13;;
16640;SDS011;8434;47.990;7.880;2022-10-29T02:46:17;11.20;;;3.57;;
16640;SDS011;8434;47.990;7.880;2022-10-29T02:49:03;10.70;;;3.30;;
16640;SDS011;8434;47.990;7.880;2022-10-29T02:51:48;7.50;;;2.53;;
16640;SDS011;8434;47.990;7.880;2022-10-29T02:54:34;7.93;;;3.50;;
16640;SDS011;8434;47.990;7.880;2022-10-29T02:57:19;6.17;;;3.20;;
16640;SDS011;8434;47.990;7.880;2022-10-29T03:00:04;12.27;;;5.13;;
16640;SDS011;8434;47.990;7.880;2022-10-29T03:02:50;8.53;;;2.97;;
16640;SDS011;8434;47.990;7.880;2022-10-29T03:05:36;7.90;;;3.20;;
16640;SDS011;8434;47.990;7.880;2022-10-29T03:08:21;7.77;;;3.20;;
16640;SDS011;8434;47.990;7.880;2022-10-29T03:11:07;8.43;;;2.87;;
16640;SDS011;8434;47.990;7.880;2022-10-29T03:13:52;6.30;;;3.37;;
16640;SDS011;8434;47.990;7.880;2022-10-29T03:16:37;7.37;;;3.63;;
16640;SDS011;8434;47.990;7.880;2022-10-29T03:19:22;10.80;;;3.07;;
16640;SDS011;8434;47.990;7.880;2022-10-29T03:22:07;7.17;;;3.60;;
16640;SDS011;8434;47.990;7.880;2022-10-29T03:24:52;9.80;;;3.30;;
16640;SDS011;8434;47.990;7.880;2022-10-29T03:27:40;8.87;;;3.10;;
16640;SDS011;8434;47.990;7.880;2022-10-29T03:30:26;9.13;;;4.20;;
16640;SDS011;8434;47.990;7.880;2022-10-29T03:33:11;13.03;;;3.33;;
16640;SDS011;8434;47.990;7.880;2022-10-29T03:35:57;7.37;;;4.17;;
16640;SDS011;8434;47.990;7.880;2022-10-29T03:41:28;6.60;;;2.77;;
16640;SDS011;8434;47.990;7.880;2022-10-29T03:44:14;8.00;;;3.87;;
16640;SDS011;8434;47.990;7.880;2022-10-29T03:46:59;8.53;;;3.23;;
16640;SDS011;8434;47.990;7.880;2022-10-29T03:49:44;9.17;;;3.40;;
16640;SDS011;8434;47.990;7.880;2022-10-29T03:52:29;7.07;;;2.90;;
16640;SDS011;8434;47.990;7.880;2022-10-29T03:55:14;8.47;;;3.23;;
16640;SDS011;8434;47.990;7.880;2022-10-29T03:57:58;5.27;;;3.10;;
16640;SDS011;8434;47.990;7.880;2022-10-29T04:00:47;6.00;;;3.63;;
16640;SDS011;8434;47.990;7.880;2022-10-29T04:03:37;8.87;;;3.20;;
16640;SDS011;8434;47.990;7.880;2022-10-29T04:06:24;8.33;;;3.53;;
16640;SDS011;8434;47.990;7.880;2022-10-29T04:09:09;6.43;;;2.83;;
16640;SDS011;8434;47.990;7.880;2022-10-29T04:11:54;8.70;;;3.27;;
16640;SDS011;8434;47.990;7.880;2022-10-29T04:14:39;8.97;;;3.23;;
16640;SDS011;8434;47.990;7.880;2022-10-29T04:17:26;9.57;;;3.20;;
16640;SDS011;8434;47.990;7.880;2022-10-29T04:20:11;10.63;;;3.40;;
16640;SDS011;8434;47.990;7.880;2022-10-29T04:22:56;12.33;;;4.07;;
16640;SDS011;8434;47.990;7.880;2022-10-29T04:25:41;18.93;;;4.83;;
16640;SDS011;8434;47.990;7.880;2022-10-29T04:28:25;9.30;;;3.20;;
16640;SDS011;8434;47.990;7.880;2022-10-29T04:31:11;7.33;;;3.13;;
16640;SDS011;8434;47.990;7.880;2022-10-29T04:33:57;12.40;;;4.00;;
16640;SDS011;8434;47.990;7.880;2022-10-29T04:36:42;5.77;;;3.10;;
16640;SDS011;8434;47.990;7.880;2022-10-29T04:39:27;7.60;;;3.20;;
16640;SDS011;8434;47.990;7.880;2022-10-29T04:42:12;12.23;;;3.17;;
16640;SDS011;8434;47.990;7.880;2022-10-29T04:44:56;12.50;;;4.23;;
16640;SDS011;8434;47.990;7.880;2022-10-29T04:47:41;10.37;;;3.53;;
16640;SDS011;8434;47.990;7.880;2022-10-29T04:50:28;7.20;;;4.17;;
16640;SDS011;8434;47.990;7.880;2022-10-29T04:53:13;8.63;;;3.17;;
16640;SDS011;8434;47.990;7.880;2022-10-29T04:55:58;10.67;;;4.07;;
16640;SDS011;8434;47.990;7.880;2022-10-29T04:58:43;9.90;;;4.47;;
16640;SDS011;8434;47.990;7.880;2022-10-29T05:01:28;12.57;;;4.00;;
16640;SDS011;8434;47.990;7.880;2022-10-29T05:04:13;9.60;;;3.00;;
16640;SDS011;8434;47.990;7.880;2022-10-29T05:06:59;5.30;;;3.40;;
16640;SDS011;8434;47.990;7.880;2022-10-29T05:09:44;7.50;;;3.20;;
16640;SDS011;8434;47.990;7.880;2022-10-29T05:12:30;9.93;;;3.33;;
16640;SDS011;8434;47.990;7.880;2022-10-29T05:15:14;7.20;;;3.13;;
16640;SDS011;8434;47.990;7.880;2022-10-29T05:17:59;8.17;;;3.30;;
16640;SDS011;8434;47.990;7.880;2022-10-29T05:20:45;7.27;;;3.30;;
16640;SDS011;8434;47.990;7.880;2022-10-29T05:23:31;10.03;;;3.40;;
16640;SDS011;8434;47.990;7.880;2022-10-29T05:26:16;9.80;;;4.27;;
16640;SDS011;8434;47.990;7.880;2022-10-29T05:29:01;9.27;;;3.87;;
16640;SDS011;8434;47.990;7.880;2022-10-29T05:31:46;8.03;;;3.17;;
16640;SDS011;8434;47.990;7.880;2022-10-29T05:34:31;8.27;;;3.50;;
16640;SDS011;8434;47.990;7.880;2022-10-29T05:37:16;10.20;;;3.87;;
16640;SDS011;8434;47.990;7.880;2022-10-29T05:40:03;10.07;;;3.37;;
16640;SDS011;8434;47.990;7.880;2022-10-29T05:42:48;9.17;;;3.07;;
16640;SDS011;8434;47.990;7.880;2022-10-29T05:45:33;7.93;;;3.03;;
16640;SDS011;8434;47.990;7.880;2022-10-29T05:48:18;9.50;;;3.30;;
16640;SDS011;8434;47.990;7.880;2022-10-29T05:51:03;7.80;;;3.53;;
16640;SDS011;8434;47.990;7.880;2022-10-29T05:53:48;7.27;;;3.63;;
16640;SDS011;8434;47.990;7.880;2022-10-29T05:56:34;9.00;;;3.33;;
16640;SDS011;8434;47.990;7.880;2022-10-29T05:59:20;9.03;;;3.07;;
16640;SDS011;8434;47.990;7.880;2022-10-29T06:02:07;9.50;;;3.50;;
16640;SDS011;8434;47.990;7.880;2022-10-29T06:04:52;10.17;;;3.50;;
16640;SDS011;8434;47.990;7.880;2022-10-29T06:07:37;9.37;;;2.83;;
16640;SDS011;8434;47.990;7.880;2022-10-29T06:10:22;6.53;;;3.00;;
16640;SDS011;8434;47.990;7.880;2022-10-29T06:13:09;10.57;;;3.07;;
16640;SDS011;8434;47.990;7.880;2022-10-29T06:15:58;8.23;;;3.50;;
16640;SDS011;8434;47.990;7.880;2022-10-29T06:18:43;6.80;;;3.20;;
16640;SDS011;8434;47.990;7.880;2022-10-29T06:21:28;10.03;;;3.60;;
16640;SDS011;8434;47.990;7.880;2022-10-29T06:24:13;9.17;;;3.90;;
16640;SDS011;8434;47.990;7.880;2022-10-29T06:26:58;12.27;;;3.53;;
16640;SDS011;8434;47.990;7.880;2022-10-29T06:29:44;8.03;;;3.43;;
16640;SDS011;8434;47.990;7.880;2022-10-29T06:32:30;6.13;;;2.87;;
16640;SDS011;8434;47.990;7.880;2022-10-29T06:35:14;11.50;;;3.60;;
16640;SDS011;8434;47.990;7.880;2022-10-29T06:37:59;7.17;;;3.00;;
16640;SDS011;8434;47.990;7.880;2022-10-29T06:40:50;7.17;;;3.70;;
16640;SDS011;8434;47.990;7.880;2022-10-29T06:43:35;16.50;;;4.53;;
16640;SDS011;8434;47.990;7.880;2022-10-29T06:46:21;9.97;;;3.70;;
16640;SDS011;8434;47.990;7.880;2022-10-29T06:49:07;6.77;;;3.50;;
16640;SDS011;8434;47.990;7.880;2022-10-29T06:51:52;9.50;;;3.33;;
16640;SDS011;8434;47.990;7.880;2022-10-29T06:54:36;8.83;;;3.23;;
16640;SDS011;8434;47.990;7.880;2022-10-29T06:57:21;8.47;;;3.67;;
16640;SDS011;8434;47.990;7.880;2022-10-29T07:00:08;7.50;;;3.63;;
16640;SDS011;8434;47.990;7.880;2022-10-29T07:02:55;9.70;;;3.40;;
16640;SDS011;8434;47.990;7.880;2022-10-29T07:05:40;5.47;;;3.20;;
16640;SDS011;8434;47.990;7.880;2022-10-29T07:08:25;5.67;;;3.40;;
16640;SDS011;8434;47.990;7.880;2022-10-29T07:11:11;7.03;;;3.17;;
16640;SDS011;8434;47.990;7.880;2022-10-29T07:13:56;8.40;;;3.23;;
16640;SDS011;8434;47.990;7.880;2022-10-29T07:16:41;6.73;;;3.53;;
16640;SDS011;8434;47.990;7.880;2022-10-29T07:19:27;10.53;;;2.90;;
16640;SDS011;8434;47.990;7.880;2022-10-29T07:22:12;5.63;;;3.00;;
16640;SDS011;8434;47.990;7.880;2022-10-29T07:24:57;10.17;;;3.27;;
16640;SDS011;8434;47.990;7.880;2022-10-29T07:27:42;4.67;;;3.47;;
16640;SDS011;8434;47.990;7.880;2022-10-29T07:30:27;10.03;;;2.90;;
16640;SDS011;8434;47.990;7.880;2022-10-29T07:33:12;7.90;;;3.47;;
16640;SDS011;8434;47.990;7.880;2022-10-29T07:35:58;6.83;;;3.37;;
16640;SDS011;8434;47.990;7.880;2022-10-29T07:38:44;8.00;;;2.97;;
16640;SDS011;8434;47.990;7.880;2022-10-29T07:41:29;10.50;;;3.57;;
16640;SDS011;8434;47.990;7.880;2022-10-29T07:44:15;7.87;;;3.50;;
16640;SDS011;8434;47.990;7.880;2022-10-29T07:47:00;8.37;;;3.73;;
16640;SDS011;8434;47.990;7.880;2022-10-29T07:49:45;8.07;;;3.10;;
16640;SDS011;8434;47.990;7.880;2022-10-29T07:52:32;8.83;;;3.43;;
16640;SDS011;8434;47.990;7.880;2022-10-29T07:55:17;9.17;;;3.60;;
16640;SDS011;8434;47.990;7.880;2022-10-29T07:58:03;10.43;;;3.40;;
16640;SDS011;8434;47.990;7.880;2022-10-29T08:00:48;7.97;;;3.90;;
16640;SDS011;8434;47.990;7.880;2022-10-29T08:03:33;6.00;;;3.23;;
16640;SDS011;8434;47.990;7.880;2022-10-29T08:06:18;6.40;;;2.87;;
16640;SDS011;8434;47.990;7.880;2022-10-29T08:09:05;7.27;;;2.47;;
16640;SDS011;8434;47.990;7.880;2022-10-29T08:11:50;6.87;;;3.50;;
16640;SDS011;8434;47.990;7.880;2022-10-29T08:14:35;6.47;;;3.23;;
16640;SDS011;8434;47.990;7.880;2022-10-29T08:17:20;9.17;;;3.60;;
16640;SDS011;8434;47.990;7.880;2022-10-29T08:20:05;9.53;;;3.83;;
16640;SDS011;8434;47.990;7.880;2022-10-29T08:22:50;7.17;;;3.20;;
16640;SDS011;8434;47.990;7.880;2022-10-29T08:25:37;7.15;;;3.20;;
16640;SDS011;8434;47.990;7.880;2022-10-29T08:28:24;7.70;;;3.42;;
16640;SDS011;8434;47.990;7.880;2022-10-29T08:31:09;6.63;;;3.70;;
16640;SDS011;8434;47.990;7.880;2022-10-29T08:33:54;6.45;;;3.45;;
16640;SDS011;8434;47.990;7.880;2022-10-29T08:36:39;7.22;;;2.83;;
16640;SDS011;8434;47.990;7.880;2022-10-29T08:39:24;7.70;;;3.28;;
16640;SDS011;8434;47.990;7.880;2022-10-29T08:42:13;8.55;;;3.17;;
16640;SDS011;8434;47.990;7.880;2022-10-29T08:45:02;8.77;;;3.20;;
16640;SDS011;8434;47.990;7.880;2022-10-29T08:47:54;7.68;;;2.80;;
16640;SDS011;8434;47.990;7.880;2022-10-29T08:50:41;14.52;;;3.08;;
16640;SDS011;8434;47.990;7.880;2022-10-29T08:53:30;7.57;;;3.22;;
16640;SDS011;8434;47.990;7.880;2022-10-29T08:56:18;9.45;;;3.65;;
16640;SDS011;8434;47.990;7.880;2022-10-29T08:59:05;6.50;;;3.10;;
16640;SDS011;8434;47.990;7.880;2022-10-29T09:01:51;9.05;;;3.63;;
16640;SDS011;8434;47.990;7.880;2022-10-29T09:04:37;9.98;;;3.20;;
16640;SDS011;8434;47.990;7.880;2022-10-29T09:07:26;7.00;;;3.15;;
16640;SDS011;8434;47.990;7.880;2022-10-29T09:10:19;10.80;;;3.20;;
16640;SDS011;8434;47.990;7.880;2022-10-29T09:13:19;12.13;;;4.60;;
16640;SDS011;8434;47.990;7.880;2022-10-29T09:16:14;6.45;;;3.40;;
16640;SDS011;8434;47.990;7.880;2022-10-29T09:19:06;7.15;;;3.22;;
16640;SDS011;8434;47.990;7.880;2022-10-29T09:21:55;6.97;;;2.92;;
16640;SDS011;8434;47.990;7.880;2022-10-29T09:24:45;11.13;;;3.72;;
16640;SDS011;8434;47.990;7.880;2022-10-29T09:27:37;11.52;;;3.30;;
16640;SDS011;8434;47.990;7.880;2022-10-29T09:30:23;11.07;;;4.78;;
16640;SDS011;8434;47.990;7.880;2022-10-29T09:33:12;12.70;;;3.80;;
16640;SDS011;8434;47.990;7.880;2022-10-29T09:35:58;7.97;;;3.90;;
16640;SDS011;8434;47.990;7.880;2022-10-29T09:38:45;8.80;;;4.60;;
16640;SDS011;8434;47.990;7.880;2022-10-29T09:41:33;12.23;;;5.07;;
16640;SDS011;8434;47.990;7.880;2022-10-29T09:44:19;10.95;;;4.95;;
16640;SDS011;8434;47.990;7.880;2022-10-29T09:47:06;14.32;;;4.68;;
16640;SDS011;8434;47.990;7.880;2022-10-29T09:49:57;8.25;;;4.38;;
16640;SDS011;8434;47.990;7.880;2022-10-29T09:52:47;9.77;;;4.47;;
16640;SDS011;8434;47.990;7.880;2022-10-29T09:55:35;13.25;;;4.90;;
16640;SDS011;8434;47.990;7.880;2022-10-29T09:58:23;11.27;;;4.50;;
16640;SDS011;8434;47.990;7.880;2022-10-29T10:01:08;7.70;;;4.63;;
16640;SDS011;8434;47.990;7.880;2022-10-29T10:03:54;9.35;;;5.10;;
16640;SDS011;8434;47.990;7.880;2022-10-29T10:09:53;11.15;;;4.95;;
16640;SDS011;8434;47.990;7.880;2022-10-29T10:12:45;12.45;;;5.22;;
16640;SDS011;8434;47.990;7.880;2022-10-29T10:15:31;9.50;;;4.72;;
16640;SDS011;8434;47.990;7.880;2022-10-29T10:18:17;9.70;;;4.25;;
16640;SDS011;8434;47.990;7.880;2022-10-29T10:21:04;7.00;;;4.07;;
16640;SDS011;8434;47.990;7.880;2022-10-29T10:23:50;15.80;;;4.80;;
16640;SDS011;8434;47.990;7.880;2022-10-29T10:26:37;10.57;;;5.25;;
16640;SDS011;8434;47.990;7.880;2022-10-29T10:29:25;9.70;;;5.28;;
16640;SDS011;8434;47.990;7.880;2022-10-29T10:32:12;9.63;;;4.55;;
16640;SDS011;8434;47.990;7.880;2022-10-29T10:34:58;13.55;;;4.80;;
16640;SDS011;8434;47.990;7.880;2022-10-29T10:37:43;11.18;;;4.68;;
16640;SDS011;8434;47.990;7.880;2022-10-29T10:40:29;9.00;;;3.95;;
16640;SDS011;8434;47.990;7.880;2022-10-29T10:43:20;8.40;;;4.45;;
16640;SDS011;8434;47.990;7.880;2022-10-29T10:46:10;7.70;;;4.35;;
16640;SDS011;8434;47.990;7.880;2022-10-29T10:48:57;10.18;;;5.10;;
16640;SDS011;8434;47.990;7.880;2022-10-29T10:51:43;13.27;;;5.18;;
16640;SDS011;8434;47.990;7.880;2022-10-29T10:54:30;14.25;;;5.53;;
16640;SDS011;8434;47.990;7.880;2022-10-29T10:57:20;10.05;;;4.65;;
16640;SDS011;8434;47.990;7.880;2022-10-29T11:00:08;8.30;;;4.55;;
16640;SDS011;8434;47.990;7.880;2022-10-29T11:03:00;9.27;;;4.53;;
16640;SDS011;8434;47.990;7.880;2022-10-29T11:05:48;9.57;;;4.32;;
16640;SDS011;8434;47.990;7.880;2022-10-29T11:08:38;8.82;;;4.70;;
16640;SDS011;8434;47.990;7.880;2022-10-29T11:11:27;10.15;;;4.63;;
16640;SDS011;8434;47.990;7.880;2022-10-29T11:14:14;11.32;;;4.32;;
16640;SDS011;8434;47.990;7.880;2022-10-29T11:17:03;9.90;;;4.78;;
16640;SDS011;8434;47.990;7.880;2022-10-29T11:19:50;10.77;;;4.50;;
16640;SDS011;8434;47.990;7.880;2022-10-29T11:22:37;7.43;;;4.80;;
16640;SDS011;8434;47.990;7.880;2022-10-29T11:25:27;10.43;;;4.35;;
16640;SDS011;8434;47.990;7.880;2022-10-29T11:28:19;7.70;;;4.43;;
16640;SDS011;8434;47.990;7.880;2022-10-29T11:31:08;8.05;;;4.40;;
16640;SDS011;8434;47.990;7.880;2022-10-29T11:33:59;11.13;;;4.78;;
16640;SDS011;8434;47.990;7.880;2022-10-29T11:36:49;8.70;;;4.18;;
16640;SDS011;8434;47.990;7.880;2022-10-29T11:39:41;8.98;;;4.20;;
16640;SDS011;8434;47.990;7.880;2022-10-29T11:42:29;8.57;;;3.72;;
16640;SDS011;8434;47.990;7.880;2022-10-29T11:45:19;9.90;;;4.80;;
16640;SDS011;8434;47.990;7.880;2022-10-29T11:48:11;7.97;;;4.03;;
16640;SDS011;8434;47.990;7.880;2022-10-29T11:51:00;11.70;;;4.43;;
16640;SDS011;8434;47.990;7.880;2022-10-29T11:53:56;15.27;;;4.47;;
16640;SDS011;8434;47.990;7.880;2022-10-29T11:56:47;9.80;;;3.80;;
16640;SDS011;8434;47.990;7.880;2022-10-29T11:59:37;11.70;;;4.13;;
16640;SDS011;8434;47.990;7.880;2022-10-29T12:02:28;10.57;;;4.32;;
16640;SDS011;8434;47.990;7.880;2022-10-29T12:05:19;10.55;;;4.38;;
16640;SDS011;8434;47.990;7.880;2022-10-29T12:08:12;12.43;;;3.92;;
16640;SDS011;8434;47.990;7.880;2022-10-29T12:11:02;12.95;;;3.92;;
16640;SDS011;8434;47.990;7.880;2022-10-29T12:13:54;13.10;;;3.63;;
16640;SDS011;8434;47.990;7.880;2022-10-29T12:16:43;10.77;;;3.05;;
16640;SDS011;8434;47.990;7.880;2022-10-29T12:19:35;9.15;;;3.08;;
16640;SDS011;8434;47.990;7.880;2022-10-29T12:22:24;12.02;;;3.83;;
16640;SDS011;8434;47.990;7.880;2022-10-29T12:25:26;8.10;;;3.13;;
16640;SDS011;8434;47.990;7.880;2022-10-29T12:28:15;7.65;;;3.13;;
16640;SDS011;8434;47.990;7.880;2022-10-29T12:31:05;9.73;;;3.28;;
16640;SDS011;8434;47.990;7.880;2022-10-29T12:33:54;9.95;;;3.22;;
16640;SDS011;8434;47.990;7.880;2022-10-29T12:36:42;8.98;;;3.47;;
16640;SDS011;8434;47.990;7.880;2022-10-29T12:39:31;6.50;;;3.13;;
16640;SDS011;8434;47.990;7.880;2022-10-29T12:42:20;11.25;;;3.40;;
16640;SDS011;8434;47.990;7.880;2022-10-29T12:45:12;10.95;;;3.58;;
16640;SDS011;8434;47.990;7.880;2022-10-29T12:47:59;8.35;;;3.92;;
16640;SDS011;8434;47.990;7.880;2022-10-29T12:50:49;9.20;;;3.10;;
16640;SDS011;8434;47.990;7.880;2022-10-29T12:53:38;7.35;;;3.42;;
16640;SDS011;8434;47.990;7.880;2022-10-29T12:56:26;10.02;;;3.50;;
16640;SDS011;8434;47.990;7.880;2022-10-29T12:59:28;11.50;;;3.55;;
16640;SDS011;8434;47.990;7.880;2022-10-29T13:02:18;12.70;;;4.28;;
16640;SDS011;8434;47.990;7.880;2022-10-29T13:08:07;12.45;;;4.32;;
16640;SDS011;8434;47.990;7.880;2022-10-29T13:10:53;8.38;;;3.95;;
16640;SDS011;8434;47.990;7.880;2022-10-29T13:13:55;14.70;;;4.57;;
16640;SDS011;8434;47.990;7.880;2022-10-29T13:16:43;7.65;;;4.30;;
16640;SDS011;8434;47.990;7.880;2022-10-29T13:22:51;13.27;;;4.60;;
16640;SDS011;8434;47.990;7.880;2022-10-29T13:28:47;8.90;;;4.40;;
16640;SDS011;8434;47.990;7.880;2022-10-29T13:31:47;13.05;;;4.00;;
16640;SDS011;8434;47.990;7.880;2022-10-29T13:34:49;12.00;;;4.28;;
16640;SDS011;8434;47.990;7.880;2022-10-29T13:40:41;8.52;;;3.90;;
16640;SDS011;8434;47.990;7.880;2022-10-29T13:43:37;8.95;;;4.65;;
16640;SDS011;8434;47.990;7.880;2022-10-29T13:46:25;7.22;;;3.85;;
16640;SDS011;8434;47.990;7.880;2022-10-29T13:49:14;18.55;;;5.13;;
16640;SDS011;8434;47.990;7.880;2022-10-29T13:52:01;11.75;;;4.68;;
16640;SDS011;8434;47.990;7.880;2022-10-29T13:54:48;8.20;;;4.57;;
16640;SDS011;8434;47.990;7.880;2022-10-29T13:57:35;11.70;;;4.63;;
16640;SDS011;8434;47.990;7.880;2022-10-29T14:00:22;9.23;;;4.22;;
16640;SDS011;8434;47.990;7.880;2022-10-29T14:03:09;10.23;;;3.85;;
16640;SDS011;8434;47.990;7.880;2022-10-29T14:05:59;7.00;;;4.18;;
16640;SDS011;8434;47.990;7.880;2022-10-29T14:08:45;14.40;;;5.05;;
16640;SDS011;8434;47.990;7.880;2022-10-29T14:11:31;10.82;;;5.03;;
16640;SDS011;8434;47.990;7.880;2022-10-29T14:14:21;10.95;;;4.32;;
16640;SDS011;8434;47.990;7.880;2022-10-29T14:17:08;13.63;;;5.70;;
16640;SDS011;8434;47.990;7.880;2022-10-29T14:19:54;9.88;;;3.90;;
16640;SDS011;8434;47.990;7.880;2022-10-29T14:22:40;9.10;;;3.65;;
16640;SDS011;8434;47.990;7.880;2022-10-29T14:25:27;8.45;;;4.20;;
16640;SDS011;8434;47.990;7.880;2022-10-29T14:28:24;7.20;;;4.13;;
16640;SDS011;8434;47.990;7.880;2022-10-29T14:31:14;6.25;;;3.80;;
16640;SDS011;8434;47.990;7.880;2022-10-29T14:34:00;8.63;;;4.57;;
16640;SDS011;8434;47.990;7.880;2022-10-29T14:36:47;11.80;;;4.25;;
16640;SDS011;8434;47.990;7.880;2022-10-29T14:39:35;8.45;;;4.13;;
16640;SDS011;8434;47.990;7.880;2022-10-29T14:42:23;8.63;;;4.57;;
16640;SDS011;8434;47.990;7.880;2022-10-29T14:45:15;12.60;;;4.20;;
16640;SDS011;8434;47.990;7.880;2022-10-29T14:48:01;11.60;;;4.35;;
16640;SDS011;8434;47.990;7.880;2022-10-29T14:50:52;8.80;;;4.55;;
16640;SDS011;8434;47.990;7.880;2022-10-29T14:53:39;10.48;;;4.38;;
16640;SDS011;8434;47.990;7.880;2022-10-29T14:56:27;12.00;;;5.18;;
16640;SDS011;8434;47.990;7.880;2022-10-29T14:59:17;12.73;;;6.15;;
16640;SDS011;8434;47.990;7.880;2022-10-29T15:02:04;10.15;;;4.93;;
16640;SDS011;8434;47.990;7.880;2022-10-29T15:04:54;10.85;;;5.55;;
16640;SDS011;8434;47.990;7.880;2022-10-29T15:07:39;14.68;;;6.00;;
16640;SDS011;8434;47.990;7.880;2022-10-29T15:10:24;8.45;;;5.45;;
16640;SDS011;8434;47.990;7.880;2022-10-29T15:13:17;11.73;;;6.95;;
16640;SDS011;8434;47.990;7.880;2022-10-29T15:16:05;16.58;;;6.20;;
16640;SDS011;8434;47.990;7.880;2022-10-29T15:18:51;8.68;;;5.43;;
16640;SDS011;8434;47.990;7.880;2022-10-29T15:21:38;12.05;;;6.20;;
16640;SDS011;8434;47.990;7.880;2022-10-29T15:24:23;13.48;;;7.32;;
16640;SDS011;8434;47.990;7.880;2022-10-29T15:27:08;9.25;;;5.30;;
16640;SDS011;8434;47.990;7.880;2022-10-29T15:29:57;12.23;;;6.03;;
16640;SDS011;8434;47.990;7.880;2022-10-29T15:32:42;11.57;;;5.47;;
16640;SDS011;8434;47.990;7.880;2022-10-29T15:35:28;12.45;;;5.55;;
16640;SDS011;8434;47.990;7.880;2022-10-29T15:38:26;13.85;;;7.70;;
16640;SDS011;8434;47.990;7.880;2022-10-29T15:41:33;12.77;;;6.97;;
16640;SDS011;8434;47.990;7.880;2022-10-29T15:44:29;9.18;;;5.05;;
16640;SDS011;8434;47.990;7.880;2022-10-29T15:47:20;9.48;;;5.22;;
16640;SDS011;8434;47.990;7.880;2022-10-29T15:50:08;8.13;;;4.82;;
16640;SDS011;8434;47.990;7.880;2022-10-29T15:52:54;11.63;;;5.07;;
16640;SDS011;8434;47.990;7.880;2022-10-29T15:55:40;12.63;;;5.43;;
16640;SDS011;8434;47.990;7.880;2022-10-29T15:58:26;12.55;;;5.20;;
16640;SDS011;8434;47.990;7.880;2022-10-29T16:01:11;8.07;;;5.63;;
16640;SDS011;8434;47.990;7.880;2022-10-29T16:03:57;16.02;;;9.27;;
16640;SDS011;8434;47.990;7.880;2022-10-29T16:06:42;11.77;;;5.57;;
16640;SDS011;8434;47.990;7.880;2022-10-29T16:09:27;12.10;;;5.30;;
16640;SDS011;8434;47.990;7.880;2022-10-29T16:12:12;9.47;;;4.77;;
16640;SDS011;8434;47.990;7.880;2022-10-29T16:14:57;11.43;;;4.90;;
16640;SDS011;8434;47.990;7.880;2022-10-29T16:17:42;9.70;;;4.90;;
16640;SDS011;8434;47.990;7.880;2022-10-29T16:20:29;11.77;;;5.57;;
16640;SDS011;8434;47.990;7.880;2022-10-29T16:23:13;10.20;;;6.67;;
16640;SDS011;8434;47.990;7.880;2022-10-29T16:25:59;9.63;;;4.93;;
16640;SDS011;8434;47.990;7.880;2022-10-29T16:28:44;9.13;;;4.60;;
16640;SDS011;8434;47.990;7.880;2022-10-29T16:31:29;8.33;;;4.33;;
16640;SDS011;8434;47.990;7.880;2022-10-29T16:34:14;10.70;;;4.87;;
16640;SDS011;8434;47.990;7.880;2022-10-29T16:37:00;13.60;;;4.57;;
16640;SDS011;8434;47.990;7.880;2022-10-29T16:39:45;12.00;;;4.50;;
16640;SDS011;8434;47.990;7.880;2022-10-29T16:42:30;9.10;;;4.47;;
16640;SDS011;8434;47.990;7.880;2022-10-29T16:45:17;16.30;;;5.33;;
16640;SDS011;8434;47.990;7.880;2022-10-29T16:48:03;11.40;;;4.77;;
16640;SDS011;8434;47.990;7.880;2022-10-29T16:50:48;11.77;;;5.23;;
16640;SDS011;8434;47.990;7.880;2022-10-29T16:53:34;12.33;;;5.00;;
16640;SDS011;8434;47.990;7.880;2022-10-29T16:56:19;9.60;;;4.53;;
16640;SDS011;8434;47.990;7.880;2022-10-29T16:59:04;12.23;;;5.00;;
16640;SDS011;8434;47.990;7.880;2022-10-29T17:01:49;10.23;;;4.70;;
16640;SDS011;8434;47.990;7.880;2022-10-29T17:04:34;9.73;;;5.23;;
16640;SDS011;8434;47.990;7.880;2022-10-29T17:07:19;10.27;;;4.63;;
16640;SDS011;8434;47.990;7.880;2022-10-29T17:10:06;13.73;;;4.93;;
16640;SDS011;8434;47.990;7.880;2022-10-29T17:12:51;11.30;;;4.70;;
16640;SDS011;8434;47.990;7.880;2022-10-29T17:15:37;11.27;;;4.70;;
16640;SDS011;8434;47.990;7.880;2022-10-29T17:18:22;12.20;;;4.40;;
16640;SDS011;8434;47.990;7.880;2022-10-29T17:21:07;15.17;;;4.60;;
16640;SDS011;8434;47.990;7.880;2022-10-29T17:23:53;13.90;;;5.17;;